sensor_id;sensor_type;location;lat;lon;timestamp;P1;durP1;ratioP1;P2;durP2;ratioP2
69783;SDS011;57054;51.978;4.498;2023-08-06T00:00:21;6.85;;;6.22;;
69783;SDS011;57054;51.978;4.498;2023-08-06T00:02:47;6.85;;;6.25;;
69783;SDS011;57054;51.978;4.498;2023-08-06T00:05:13;5.63;;;5.13;;
69783;SDS011;57054;51.978;4.498;2023-08-06T00:07:38;5.32;;;4.93;;
69783;SDS011;57054;51.978;4.498;2023-08-06T00:10:04;4.32;;;4.03;;
69783;SDS011;57054;51.978;4.498;2023-08-06T00:12:30;6.43;;;6.00;;
69783;SDS011;57054;51.978;4.498;2023-08-06T00:14:55;7.20;;;6.50;;
69783;SDS011;57054;51.978;4.498;2023-08-06T00:17:20;6.32;;;5.82;;
69783;SDS011;57054;51.978;4.498;2023-08-06T00:19:47;6.75;;;6.25;;
69783;SDS011;57054;51.978;4.498;2023-08-06T00:22:12;7.97;;;6.40;;
69783;SDS011;57054;51.978;4.498;2023-08-06T00:24:38;8.40;;;7.50;;
69783;SDS011;57054;51.978;4.498;2023-08-06T00:27:03;6.55;;;5.97;;
69783;SDS011;57054;51.978;4.498;2023-08-06T00:29:29;6.65;;;6.15;;
69783;SDS011;57054;51.978;4.498;2023-08-06T00:31:54;6.75;;;6.18;;
69783;SDS011;57054;51.978;4.498;2023-08-06T00:34:20;6.07;;;5.57;;
69783;SDS011;57054;51.978;4.498;2023-08-06T00:36:45;8.07;;;7.28;;
69783;SDS011;57054;51.978;4.498;2023-08-06T00:39:11;8.60;;;7.60;;
69783;SDS011;57054;51.978;4.498;2023-08-06T00:41:36;10.30;;;7.28;;
69783;SDS011;57054;51.978;4.498;2023-08-06T00:44:01;5.13;;;4.07;;
69783;SDS011;57054;51.978;4.498;2023-08-06T00:46:27;6.10;;;5.60;;
69783;SDS011;57054;51.978;4.498;2023-08-06T00:48:52;7.57;;;6.97;;
69783;SDS011;57054;51.978;4.498;2023-08-06T00:51:18;5.22;;;4.82;;
69783;SDS011;57054;51.978;4.498;2023-08-06T00:53:44;5.70;;;5.20;;
69783;SDS011;57054;51.978;4.498;2023-08-06T00:56:10;6.13;;;5.53;;
69783;SDS011;57054;51.978;4.498;2023-08-06T00:58:36;5.72;;;5.32;;
69783;SDS011;57054;51.978;4.498;2023-08-06T01:04:23;4.93;;;4.53;;
69783;SDS011;57054;51.978;4.498;2023-08-06T01:15:24;5.65;;;5.10;;
69783;SDS011;57054;51.978;4.498;2023-08-06T01:17:54;4.07;;;3.70;;
69783;SDS011;57054;51.978;4.498;2023-08-06T01:20:20;5.75;;;5.35;;
69783;SDS011;57054;51.978;4.498;2023-08-06T01:22:45;7.30;;;6.60;;
69783;SDS011;57054;51.978;4.498;2023-08-06T01:25:11;5.70;;;5.30;;
69783;SDS011;57054;51.978;4.498;2023-08-06T01:27:46;5.75;;;5.35;;
69783;SDS011;57054;51.978;4.498;2023-08-06T01:30:19;6.53;;;6.00;;
69783;SDS011;57054;51.978;4.498;2023-08-06T01:32:49;6.82;;;6.22;;
69783;SDS011;57054;51.978;4.498;2023-08-06T01:35:19;6.18;;;5.57;;
69783;SDS011;57054;51.978;4.498;2023-08-06T01:37:44;5.72;;;5.18;;
69783;SDS011;57054;51.978;4.498;2023-08-06T01:40:12;6.07;;;5.57;;
69783;SDS011;57054;51.978;4.498;2023-08-06T01:42:38;6.32;;;5.55;;
69783;SDS011;57054;51.978;4.498;2023-08-06T01:45:04;8.00;;;6.95;;
69783;SDS011;57054;51.978;4.498;2023-08-06T01:47:34;6.85;;;6.25;;
69783;SDS011;57054;51.978;4.498;2023-08-06T01:49:59;5.63;;;5.22;;
69783;SDS011;57054;51.978;4.498;2023-08-06T01:52:25;6.15;;;5.75;;
69783;SDS011;57054;51.978;4.498;2023-08-06T01:54:52;5.82;;;5.40;;
69783;SDS011;57054;51.978;4.498;2023-08-06T01:57:17;5.93;;;5.43;;
69783;SDS011;57054;51.978;4.498;2023-08-06T01:59:43;6.57;;;6.07;;
69783;SDS011;57054;51.978;4.498;2023-08-06T02:02:08;6.93;;;6.38;;
69783;SDS011;57054;51.978;4.498;2023-08-06T02:04:34;7.10;;;6.50;;
69783;SDS011;57054;51.978;4.498;2023-08-06T02:06:59;7.00;;;6.47;;
69783;SDS011;57054;51.978;4.498;2023-08-06T02:09:25;8.77;;;7.93;;
69783;SDS011;57054;51.978;4.498;2023-08-06T02:11:50;8.52;;;7.90;;
69783;SDS011;57054;51.978;4.498;2023-08-06T02:14:16;7.72;;;6.97;;
69783;SDS011;57054;51.978;4.498;2023-08-06T02:16:42;7.00;;;6.50;;
69783;SDS011;57054;51.978;4.498;2023-08-06T02:19:07;5.80;;;5.40;;
69783;SDS011;57054;51.978;4.498;2023-08-06T02:21:32;6.70;;;6.20;;
69783;SDS011;57054;51.978;4.498;2023-08-06T02:23:58;6.22;;;5.72;;
69783;SDS011;57054;51.978;4.498;2023-08-06T02:26:23;6.38;;;5.97;;
69783;SDS011;57054;51.978;4.498;2023-08-06T02:28:49;7.32;;;6.32;;
69783;SDS011;57054;51.978;4.498;2023-08-06T02:31:14;7.10;;;6.60;;
69783;SDS011;57054;51.978;4.498;2023-08-06T02:33:40;8.10;;;7.40;;
69783;SDS011;57054;51.978;4.498;2023-08-06T02:36:05;6.07;;;5.68;;
69783;SDS011;57054;51.978;4.498;2023-08-06T02:38:31;6.70;;;6.20;;
69783;SDS011;57054;51.978;4.498;2023-08-06T02:40:57;6.15;;;5.65;;
69783;SDS011;57054;51.978;4.498;2023-08-06T02:43:22;5.00;;;4.50;;
69783;SDS011;57054;51.978;4.498;2023-08-06T02:45:47;4.57;;;4.28;;
69783;SDS011;57054;51.978;4.498;2023-08-06T02:48:13;4.80;;;4.47;;
69783;SDS011;57054;51.978;4.498;2023-08-06T02:50:38;4.15;;;3.88;;
69783;SDS011;57054;51.978;4.498;2023-08-06T02:53:05;3.17;;;2.97;;
69783;SDS011;57054;51.978;4.498;2023-08-06T02:55:31;3.10;;;2.90;;
69783;SDS011;57054;51.978;4.498;2023-08-06T02:57:57;3.15;;;2.10;;
69783;SDS011;57054;51.978;4.498;2023-08-06T03:00:22;2.40;;;2.30;;
69783;SDS011;57054;51.978;4.498;2023-08-06T03:02:48;2.10;;;2.00;;
69783;SDS011;57054;51.978;4.498;2023-08-06T03:05:13;1.90;;;1.80;;
69783;SDS011;57054;51.978;4.498;2023-08-06T03:07:39;1.52;;;1.42;;
69783;SDS011;57054;51.978;4.498;2023-08-06T03:10:04;1.58;;;0.85;;
69783;SDS011;57054;51.978;4.498;2023-08-06T03:12:30;1.20;;;0.73;;
69783;SDS011;57054;51.978;4.498;2023-08-06T03:14:55;2.38;;;0.65;;
69783;SDS011;57054;51.978;4.498;2023-08-06T03:17:20;0.90;;;0.50;;
69783;SDS011;57054;51.978;4.498;2023-08-06T03:19:46;1.30;;;0.73;;
69783;SDS011;57054;51.978;4.498;2023-08-06T03:22:11;1.02;;;0.75;;
69783;SDS011;57054;51.978;4.498;2023-08-06T03:24:36;0.73;;;0.70;;
69783;SDS011;57054;51.978;4.498;2023-08-06T03:27:02;1.55;;;0.85;;
69783;SDS011;57054;51.978;4.498;2023-08-06T03:29:27;1.73;;;0.82;;
69783;SDS011;57054;51.978;4.498;2023-08-06T03:31:53;2.75;;;1.00;;
69783;SDS011;57054;51.978;4.498;2023-08-06T03:34:18;0.93;;;0.93;;
69783;SDS011;57054;51.978;4.498;2023-08-06T03:36:43;0.63;;;0.63;;
69783;SDS011;57054;51.978;4.498;2023-08-06T03:39:09;2.45;;;1.52;;
69783;SDS011;57054;51.978;4.498;2023-08-06T03:41:34;1.63;;;1.52;;
69783;SDS011;57054;51.978;4.498;2023-08-06T03:44:00;2.05;;;1.95;;
69783;SDS011;57054;51.978;4.498;2023-08-06T03:46:27;5.25;;;2.40;;
69783;SDS011;57054;51.978;4.498;2023-08-06T03:48:53;3.70;;;2.80;;
69783;SDS011;57054;51.978;4.498;2023-08-06T03:51:18;3.20;;;3.00;;
69783;SDS011;57054;51.978;4.498;2023-08-06T03:53:44;3.20;;;3.00;;
69783;SDS011;57054;51.978;4.498;2023-08-06T03:56:09;4.88;;;4.47;;
69783;SDS011;57054;51.978;4.498;2023-08-06T03:58:34;5.25;;;4.60;;
69783;SDS011;57054;51.978;4.498;2023-08-06T04:01:00;5.70;;;5.18;;
69783;SDS011;57054;51.978;4.498;2023-08-06T04:03:27;4.93;;;4.47;;
69783;SDS011;57054;51.978;4.498;2023-08-06T04:05:53;4.35;;;3.80;;
69783;SDS011;57054;51.978;4.498;2023-08-06T04:08:19;6.32;;;3.60;;
69783;SDS011;57054;51.978;4.498;2023-08-06T04:10:45;4.55;;;3.35;;
69783;SDS011;57054;51.978;4.498;2023-08-06T04:13:10;6.68;;;3.20;;
69783;SDS011;57054;51.978;4.498;2023-08-06T04:15:36;4.20;;;2.60;;
69783;SDS011;57054;51.978;4.498;2023-08-06T04:18:01;6.60;;;3.38;;
69783;SDS011;57054;51.978;4.498;2023-08-06T04:20:26;2.63;;;2.42;;
69783;SDS011;57054;51.978;4.498;2023-08-06T04:22:54;3.42;;;2.63;;
69783;SDS011;57054;51.978;4.498;2023-08-06T04:25:20;3.27;;;2.40;;
69783;SDS011;57054;51.978;4.498;2023-08-06T04:27:46;2.65;;;2.35;;
69783;SDS011;57054;51.978;4.498;2023-08-06T04:30:12;2.67;;;2.28;;
69783;SDS011;57054;51.978;4.498;2023-08-06T04:32:38;2.28;;;2.08;;
69783;SDS011;57054;51.978;4.498;2023-08-06T04:35:04;9.27;;;2.90;;
69783;SDS011;57054;51.978;4.498;2023-08-06T04:37:30;4.38;;;2.58;;
69783;SDS011;57054;51.978;4.498;2023-08-06T04:39:55;4.47;;;2.47;;
69783;SDS011;57054;51.978;4.498;2023-08-06T04:42:20;3.75;;;2.83;;
69783;SDS011;57054;51.978;4.498;2023-08-06T04:44:46;3.10;;;2.67;;
69783;SDS011;57054;51.978;4.498;2023-08-06T04:47:11;2.85;;;2.30;;
69783;SDS011;57054;51.978;4.498;2023-08-06T04:49:37;5.65;;;3.08;;
69783;SDS011;57054;51.978;4.498;2023-08-06T04:52:02;4.57;;;2.50;;
69783;SDS011;57054;51.978;4.498;2023-08-06T04:54:28;3.80;;;2.20;;
69783;SDS011;57054;51.978;4.498;2023-08-06T04:56:53;4.10;;;2.70;;
69783;SDS011;57054;51.978;4.498;2023-08-06T04:59:18;3.10;;;2.55;;
69783;SDS011;57054;51.978;4.498;2023-08-06T05:01:44;3.03;;;2.70;;
69783;SDS011;57054;51.978;4.498;2023-08-06T05:04:09;3.42;;;2.80;;
69783;SDS011;57054;51.978;4.498;2023-08-06T05:06:34;4.43;;;2.67;;
69783;SDS011;57054;51.978;4.498;2023-08-06T05:09:00;3.92;;;2.85;;
69783;SDS011;57054;51.978;4.498;2023-08-06T05:11:25;5.53;;;3.38;;
69783;SDS011;57054;51.978;4.498;2023-08-06T05:13:51;6.40;;;3.40;;
69783;SDS011;57054;51.978;4.498;2023-08-06T05:16:16;5.88;;;3.08;;
69783;SDS011;57054;51.978;4.498;2023-08-06T05:18:41;4.50;;;3.67;;
69783;SDS011;57054;51.978;4.498;2023-08-06T05:21:07;3.30;;;3.03;;
69783;SDS011;57054;51.978;4.498;2023-08-06T05:23:32;6.10;;;3.67;;
69783;SDS011;57054;51.978;4.498;2023-08-06T05:25:58;4.82;;;3.67;;
69783;SDS011;57054;51.978;4.498;2023-08-06T05:28:23;5.85;;;4.65;;
69783;SDS011;57054;51.978;4.498;2023-08-06T05:30:48;5.63;;;3.42;;
69783;SDS011;57054;51.978;4.498;2023-08-06T05:33:14;8.05;;;3.50;;
69783;SDS011;57054;51.978;4.498;2023-08-06T05:35:40;10.70;;;3.80;;
69783;SDS011;57054;51.978;4.498;2023-08-06T05:38:06;5.70;;;3.28;;
69783;SDS011;57054;51.978;4.498;2023-08-06T05:40:35;3.30;;;3.00;;
69783;SDS011;57054;51.978;4.498;2023-08-06T05:43:01;4.07;;;3.10;;
69783;SDS011;57054;51.978;4.498;2023-08-06T05:45:26;8.38;;;3.45;;
69783;SDS011;57054;51.978;4.498;2023-08-06T05:47:51;4.68;;;3.05;;
69783;SDS011;57054;51.978;4.498;2023-08-06T05:50:19;6.13;;;2.70;;
69783;SDS011;57054;51.978;4.498;2023-08-06T05:52:44;12.70;;;3.15;;
69783;SDS011;57054;51.978;4.498;2023-08-06T05:55:10;4.65;;;2.75;;
69783;SDS011;57054;51.978;4.498;2023-08-06T05:57:35;7.25;;;2.70;;
69783;SDS011;57054;51.978;4.498;2023-08-06T06:00:01;4.90;;;2.45;;
69783;SDS011;57054;51.978;4.498;2023-08-06T06:02:27;4.57;;;2.30;;
69783;SDS011;57054;51.978;4.498;2023-08-06T06:04:52;3.33;;;1.88;;
69783;SDS011;57054;51.978;4.498;2023-08-06T06:07:18;3.40;;;2.20;;
69783;SDS011;57054;51.978;4.498;2023-08-06T06:09:43;2.85;;;1.73;;
69783;SDS011;57054;51.978;4.498;2023-08-06T06:12:10;3.72;;;2.10;;
69783;SDS011;57054;51.978;4.498;2023-08-06T06:14:35;5.43;;;1.65;;
69783;SDS011;57054;51.978;4.498;2023-08-06T06:17:00;1.77;;;1.55;;
69783;SDS011;57054;51.978;4.498;2023-08-06T06:19:26;4.90;;;1.80;;
69783;SDS011;57054;51.978;4.498;2023-08-06T06:21:51;3.15;;;1.30;;
69783;SDS011;57054;51.978;4.498;2023-08-06T06:24:18;2.85;;;1.45;;
69783;SDS011;57054;51.978;4.498;2023-08-06T06:26:43;7.63;;;1.50;;
69783;SDS011;57054;51.978;4.498;2023-08-06T06:29:09;2.40;;;1.20;;
69783;SDS011;57054;51.978;4.498;2023-08-06T06:31:34;2.58;;;1.40;;
69783;SDS011;57054;51.978;4.498;2023-08-06T06:34:00;1.85;;;1.13;;
69783;SDS011;57054;51.978;4.498;2023-08-06T06:36:26;4.25;;;1.27;;
69783;SDS011;57054;51.978;4.498;2023-08-06T06:38:51;2.40;;;1.02;;
69783;SDS011;57054;51.978;4.498;2023-08-06T06:41:16;2.20;;;1.05;;
69783;SDS011;57054;51.978;4.498;2023-08-06T06:43:42;1.90;;;1.25;;
69783;SDS011;57054;51.978;4.498;2023-08-06T06:46:07;2.70;;;1.25;;
69783;SDS011;57054;51.978;4.498;2023-08-06T06:48:33;1.85;;;1.05;;
69783;SDS011;57054;51.978;4.498;2023-08-06T06:50:58;2.50;;;1.42;;
69783;SDS011;57054;51.978;4.498;2023-08-06T06:53:24;4.30;;;1.98;;
69783;SDS011;57054;51.978;4.498;2023-08-06T06:58:19;4.43;;;1.20;;
69783;SDS011;57054;51.978;4.498;2023-08-06T07:00:45;2.13;;;1.48;;
69783;SDS011;57054;51.978;4.498;2023-08-06T07:03:11;2.67;;;1.70;;
69783;SDS011;57054;51.978;4.498;2023-08-06T07:05:36;2.03;;;1.27;;
69783;SDS011;57054;51.978;4.498;2023-08-06T07:08:02;2.67;;;1.45;;
69783;SDS011;57054;51.978;4.498;2023-08-06T07:10:27;3.17;;;1.65;;
69783;SDS011;57054;51.978;4.498;2023-08-06T07:12:52;6.75;;;2.33;;
69783;SDS011;57054;51.978;4.498;2023-08-06T07:15:18;3.25;;;1.88;;
69783;SDS011;57054;51.978;4.498;2023-08-06T07:17:43;2.42;;;2.08;;
69783;SDS011;57054;51.978;4.498;2023-08-06T07:20:09;5.32;;;2.10;;
69783;SDS011;57054;51.978;4.498;2023-08-06T07:22:35;2.03;;;1.75;;
69783;SDS011;57054;51.978;4.498;2023-08-06T07:25:00;4.63;;;2.20;;
69783;SDS011;57054;51.978;4.498;2023-08-06T07:27:26;3.85;;;2.08;;
69783;SDS011;57054;51.978;4.498;2023-08-06T07:29:52;5.13;;;2.55;;
69783;SDS011;57054;51.978;4.498;2023-08-06T07:32:17;2.83;;;1.98;;
69783;SDS011;57054;51.978;4.498;2023-08-06T07:34:43;4.63;;;2.20;;
69783;SDS011;57054;51.978;4.498;2023-08-06T07:37:08;4.03;;;2.00;;
69783;SDS011;57054;51.978;4.498;2023-08-06T07:39:33;4.05;;;1.88;;
69783;SDS011;57054;51.978;4.498;2023-08-06T07:41:59;2.38;;;1.90;;
69783;SDS011;57054;51.978;4.498;2023-08-06T07:44:24;3.35;;;1.90;;
69783;SDS011;57054;51.978;4.498;2023-08-06T07:46:50;2.78;;;2.03;;
69783;SDS011;57054;51.978;4.498;2023-08-06T07:49:15;3.95;;;2.35;;
69783;SDS011;57054;51.978;4.498;2023-08-06T07:51:41;1.90;;;1.60;;
69783;SDS011;57054;51.978;4.498;2023-08-06T07:54:06;1.95;;;1.73;;
69783;SDS011;57054;51.978;4.498;2023-08-06T07:56:32;4.35;;;2.10;;
69783;SDS011;57054;51.978;4.498;2023-08-06T07:58:57;2.03;;;1.55;;
69783;SDS011;57054;51.978;4.498;2023-08-06T08:01:22;4.13;;;1.80;;
69783;SDS011;57054;51.978;4.498;2023-08-06T08:03:48;5.57;;;2.35;;
69783;SDS011;57054;51.978;4.498;2023-08-06T08:06:13;5.72;;;1.85;;
69783;SDS011;57054;51.978;4.498;2023-08-06T08:08:38;2.05;;;1.85;;
69783;SDS011;57054;51.978;4.498;2023-08-06T08:11:04;3.47;;;1.90;;
69783;SDS011;57054;51.978;4.498;2023-08-06T08:13:30;3.30;;;2.00;;
69783;SDS011;57054;51.978;4.498;2023-08-06T08:15:57;4.47;;;1.83;;
69783;SDS011;57054;51.978;4.498;2023-08-06T08:18:23;3.70;;;2.08;;
69783;SDS011;57054;51.978;4.498;2023-08-06T08:20:49;1.77;;;1.67;;
69783;SDS011;57054;51.978;4.498;2023-08-06T08:23:14;2.40;;;1.90;;
69783;SDS011;57054;51.978;4.498;2023-08-06T08:25:39;4.50;;;1.95;;
69783;SDS011;57054;51.978;4.498;2023-08-06T08:28:05;2.40;;;1.83;;
69783;SDS011;57054;51.978;4.498;2023-08-06T08:30:30;3.78;;;1.85;;
69783;SDS011;57054;51.978;4.498;2023-08-06T08:32:56;2.40;;;1.80;;
69783;SDS011;57054;51.978;4.498;2023-08-06T08:35:21;2.45;;;2.25;;
69783;SDS011;57054;51.978;4.498;2023-08-06T08:37:46;1.83;;;1.70;;
69783;SDS011;57054;51.978;4.498;2023-08-06T08:40:13;3.33;;;1.92;;
69783;SDS011;57054;51.978;4.498;2023-08-06T08:42:39;5.28;;;2.13;;
69783;SDS011;57054;51.978;4.498;2023-08-06T08:45:06;3.97;;;1.83;;
69783;SDS011;57054;51.978;4.498;2023-08-06T08:47:37;2.45;;;1.50;;
69783;SDS011;57054;51.978;4.498;2023-08-06T08:50:03;4.38;;;1.75;;
69783;SDS011;57054;51.978;4.498;2023-08-06T08:52:31;2.88;;;1.77;;
69783;SDS011;57054;51.978;4.498;2023-08-06T08:54:59;2.83;;;1.80;;
69783;SDS011;57054;51.978;4.498;2023-08-06T08:57:26;1.85;;;1.75;;
69783;SDS011;57054;51.978;4.498;2023-08-06T08:59:51;3.10;;;1.67;;
69783;SDS011;57054;51.978;4.498;2023-08-06T09:02:17;2.15;;;1.50;;
69783;SDS011;57054;51.978;4.498;2023-08-06T09:07:12;2.08;;;1.52;;
69783;SDS011;57054;51.978;4.498;2023-08-06T09:09:42;1.60;;;1.50;;
69783;SDS011;57054;51.978;4.498;2023-08-06T09:12:13;3.22;;;1.52;;
69783;SDS011;57054;51.978;4.498;2023-08-06T09:14:41;2.92;;;1.45;;
69783;SDS011;57054;51.978;4.498;2023-08-06T09:17:07;4.45;;;1.83;;
69783;SDS011;57054;51.978;4.498;2023-08-06T09:19:33;3.47;;;1.67;;
69783;SDS011;57054;51.978;4.498;2023-08-06T09:21:59;3.40;;;1.70;;
69783;SDS011;57054;51.978;4.498;2023-08-06T09:24:25;3.30;;;1.70;;
69783;SDS011;57054;51.978;4.498;2023-08-06T09:26:51;2.63;;;1.70;;
69783;SDS011;57054;51.978;4.498;2023-08-06T09:29:17;3.17;;;1.65;;
69783;SDS011;57054;51.978;4.498;2023-08-06T09:31:46;2.38;;;1.50;;
69783;SDS011;57054;51.978;4.498;2023-08-06T09:34:16;2.42;;;1.52;;
69783;SDS011;57054;51.978;4.498;2023-08-06T09:36:46;1.35;;;1.25;;
69783;SDS011;57054;51.978;4.498;2023-08-06T09:39:13;1.90;;;1.58;;
69783;SDS011;57054;51.978;4.498;2023-08-06T09:41:40;2.85;;;1.30;;
69783;SDS011;57054;51.978;4.498;2023-08-06T09:44:13;6.57;;;1.33;;
69783;SDS011;57054;51.978;4.498;2023-08-06T09:46:50;2.13;;;1.45;;
69783;SDS011;57054;51.978;4.498;2023-08-06T09:49:21;2.03;;;1.55;;
69783;SDS011;57054;51.978;4.498;2023-08-06T09:51:51;3.67;;;1.60;;
69783;SDS011;57054;51.978;4.498;2023-08-06T09:54:18;2.20;;;1.42;;
69783;SDS011;57054;51.978;4.498;2023-08-06T09:56:44;1.67;;;1.30;;
69783;SDS011;57054;51.978;4.498;2023-08-06T09:59:09;2.20;;;1.52;;
69783;SDS011;57054;51.978;4.498;2023-08-06T10:01:36;2.15;;;1.40;;
69783;SDS011;57054;51.978;4.498;2023-08-06T10:04:05;1.42;;;1.20;;
69783;SDS011;57054;51.978;4.498;2023-08-06T10:06:39;2.17;;;1.23;;
69783;SDS011;57054;51.978;4.498;2023-08-06T10:09:08;1.73;;;1.30;;
69783;SDS011;57054;51.978;4.498;2023-08-06T10:11:35;1.75;;;1.50;;
69783;SDS011;57054;51.978;4.498;2023-08-06T10:14:16;1.80;;;1.30;;
69783;SDS011;57054;51.978;4.498;2023-08-06T10:16:42;2.10;;;1.10;;
69783;SDS011;57054;51.978;4.498;2023-08-06T10:19:14;1.98;;;1.20;;
69783;SDS011;57054;51.978;4.498;2023-08-06T10:22:07;2.78;;;1.10;;
69783;SDS011;57054;51.978;4.498;2023-08-06T10:27:33;1.88;;;1.25;;
69783;SDS011;57054;51.978;4.498;2023-08-06T10:32:58;2.47;;;1.40;;
69783;SDS011;57054;51.978;4.498;2023-08-06T10:35:31;0.85;;;0.85;;
69783;SDS011;57054;51.978;4.498;2023-08-06T10:40:30;1.92;;;1.10;;
69783;SDS011;57054;51.978;4.498;2023-08-06T10:43:03;4.03;;;1.20;;
69783;SDS011;57054;51.978;4.498;2023-08-06T10:45:34;1.27;;;1.17;;
69783;SDS011;57054;51.978;4.498;2023-08-06T10:48:00;2.08;;;1.30;;
69783;SDS011;57054;51.978;4.498;2023-08-06T10:50:25;4.03;;;1.48;;
69783;SDS011;57054;51.978;4.498;2023-08-06T10:52:51;2.92;;;1.50;;
69783;SDS011;57054;51.978;4.498;2023-08-06T10:57:49;1.92;;;1.25;;
69783;SDS011;57054;51.978;4.498;2023-08-06T11:00:15;2.30;;;1.50;;
69783;SDS011;57054;51.978;4.498;2023-08-06T11:02:41;1.45;;;1.00;;
69783;SDS011;57054;51.978;4.498;2023-08-06T11:12:09;1.27;;;1.17;;
69783;SDS011;57054;51.978;4.498;2023-08-06T11:14:35;1.52;;;1.02;;
69783;SDS011;57054;51.978;4.498;2023-08-06T11:17:01;0.93;;;0.85;;
69783;SDS011;57054;51.978;4.498;2023-08-06T11:19:26;3.10;;;1.08;;
69783;SDS011;57054;51.978;4.498;2023-08-06T11:21:52;1.10;;;1.00;;
69783;SDS011;57054;51.978;4.498;2023-08-06T11:24:17;0.90;;;0.90;;
69783;SDS011;57054;51.978;4.498;2023-08-06T11:26:43;1.17;;;1.08;;
69783;SDS011;57054;51.978;4.498;2023-08-06T11:29:09;2.65;;;1.20;;
69783;SDS011;57054;51.978;4.498;2023-08-06T11:31:35;1.58;;;1.35;;
69783;SDS011;57054;51.978;4.498;2023-08-06T11:34:01;1.20;;;1.10;;
69783;SDS011;57054;51.978;4.498;2023-08-06T11:36:34;1.30;;;1.05;;
69783;SDS011;57054;51.978;4.498;2023-08-06T11:39:04;1.80;;;1.05;;
69783;SDS011;57054;51.978;4.498;2023-08-06T11:41:30;4.97;;;1.10;;
69783;SDS011;57054;51.978;4.498;2023-08-06T11:43:57;1.13;;;0.90;;
69783;SDS011;57054;51.978;4.498;2023-08-06T11:46:25;2.17;;;1.05;;
69783;SDS011;57054;51.978;4.498;2023-08-06T11:48:58;4.55;;;1.30;;
69783;SDS011;57054;51.978;4.498;2023-08-06T11:51:24;2.47;;;1.38;;
69783;SDS011;57054;51.978;4.498;2023-08-06T11:53:59;1.88;;;1.25;;
69783;SDS011;57054;51.978;4.498;2023-08-06T11:56:25;2.35;;;1.20;;
69783;SDS011;57054;51.978;4.498;2023-08-06T11:58:51;3.17;;;1.35;;
69783;SDS011;57054;51.978;4.498;2023-08-06T12:01:17;4.70;;;1.33;;
69783;SDS011;57054;51.978;4.498;2023-08-06T12:03:43;1.92;;;0.80;;
69783;SDS011;57054;51.978;4.498;2023-08-06T12:06:08;2.03;;;0.90;;
69783;SDS011;57054;51.978;4.498;2023-08-06T12:08:34;2.60;;;0.88;;
69783;SDS011;57054;51.978;4.498;2023-08-06T12:10:59;2.28;;;1.00;;
69783;SDS011;57054;51.978;4.498;2023-08-06T12:13:25;1.27;;;0.70;;
69783;SDS011;57054;51.978;4.498;2023-08-06T12:15:50;1.15;;;0.70;;
69783;SDS011;57054;51.978;4.498;2023-08-06T12:18:18;1.45;;;0.77;;
69783;SDS011;57054;51.978;4.498;2023-08-06T12:20:44;1.40;;;0.70;;
69783;SDS011;57054;51.978;4.498;2023-08-06T12:23:09;1.73;;;0.90;;
69783;SDS011;57054;51.978;4.498;2023-08-06T12:25:35;3.55;;;0.70;;
69783;SDS011;57054;51.978;4.498;2023-08-06T12:28:00;3.45;;;0.88;;
69783;SDS011;57054;51.978;4.498;2023-08-06T12:30:25;1.45;;;0.70;;
69783;SDS011;57054;51.978;4.498;2023-08-06T12:32:51;1.33;;;0.63;;
69783;SDS011;57054;51.978;4.498;2023-08-06T12:35:17;1.60;;;0.90;;
69783;SDS011;57054;51.978;4.498;2023-08-06T12:37:42;1.50;;;0.60;;
69783;SDS011;57054;51.978;4.498;2023-08-06T12:40:09;1.77;;;0.80;;
69783;SDS011;57054;51.978;4.498;2023-08-06T12:42:35;2.58;;;0.95;;
69783;SDS011;57054;51.978;4.498;2023-08-06T12:45:00;2.55;;;1.20;;
69783;SDS011;57054;51.978;4.498;2023-08-06T12:47:26;1.23;;;0.80;;
69783;SDS011;57054;51.978;4.498;2023-08-06T12:49:51;4.65;;;0.90;;
69783;SDS011;57054;51.978;4.498;2023-08-06T12:52:16;2.03;;;0.75;;
69783;SDS011;57054;51.978;4.498;2023-08-06T12:54:44;3.28;;;0.50;;
69783;SDS011;57054;51.978;4.498;2023-08-06T12:57:11;3.00;;;0.80;;
69783;SDS011;57054;51.978;4.498;2023-08-06T12:59:37;3.10;;;0.70;;
69783;SDS011;57054;51.978;4.498;2023-08-06T13:02:02;0.50;;;0.50;;
69783;SDS011;57054;51.978;4.498;2023-08-06T13:04:28;1.02;;;0.60;;
69783;SDS011;57054;51.978;4.498;2023-08-06T13:06:53;1.33;;;0.50;;
69783;SDS011;57054;51.978;4.498;2023-08-06T13:09:19;1.52;;;0.60;;
69783;SDS011;57054;51.978;4.498;2023-08-06T13:11:44;2.00;;;0.70;;
69783;SDS011;57054;51.978;4.498;2023-08-06T13:14:15;0.75;;;0.40;;
69783;SDS011;57054;51.978;4.498;2023-08-06T13:16:41;0.68;;;0.40;;
69783;SDS011;57054;51.978;4.498;2023-08-06T13:19:08;1.27;;;0.65;;
69783;SDS011;57054;51.978;4.498;2023-08-06T13:24:03;4.50;;;1.00;;
69783;SDS011;57054;51.978;4.498;2023-08-06T13:26:29;1.25;;;0.65;;
69783;SDS011;57054;51.978;4.498;2023-08-06T13:28:56;3.80;;;0.73;;
69783;SDS011;57054;51.978;4.498;2023-08-06T13:31:22;1.70;;;0.63;;
69783;SDS011;57054;51.978;4.498;2023-08-06T13:33:48;5.05;;;1.25;;
69783;SDS011;57054;51.978;4.498;2023-08-06T13:36:14;4.15;;;0.90;;
69783;SDS011;57054;51.978;4.498;2023-08-06T13:38:40;4.70;;;1.20;;
69783;SDS011;57054;51.978;4.498;2023-08-06T13:41:06;6.25;;;1.20;;
69783;SDS011;57054;51.978;4.498;2023-08-06T13:43:31;11.20;;;1.13;;
69783;SDS011;57054;51.978;4.498;2023-08-06T13:45:57;4.85;;;0.90;;
69783;SDS011;57054;51.978;4.498;2023-08-06T13:48:22;5.93;;;1.00;;
69783;SDS011;57054;51.978;4.498;2023-08-06T13:50:48;4.40;;;0.95;;
69783;SDS011;57054;51.978;4.498;2023-08-06T13:53:13;5.22;;;1.20;;
69783;SDS011;57054;51.978;4.498;2023-08-06T13:55:39;2.90;;;0.70;;
69783;SDS011;57054;51.978;4.498;2023-08-06T13:58:04;7.35;;;1.08;;
69783;SDS011;57054;51.978;4.498;2023-08-06T14:00:29;5.10;;;1.08;;
69783;SDS011;57054;51.978;4.498;2023-08-06T14:02:55;5.78;;;1.83;;
69783;SDS011;57054;51.978;4.498;2023-08-06T14:05:20;4.55;;;1.40;;
69783;SDS011;57054;51.978;4.498;2023-08-06T14:07:46;3.47;;;0.80;;
69783;SDS011;57054;51.978;4.498;2023-08-06T14:10:11;3.90;;;1.50;;
69783;SDS011;57054;51.978;4.498;2023-08-06T14:12:36;3.30;;;0.80;;
69783;SDS011;57054;51.978;4.498;2023-08-06T14:15:02;5.65;;;1.10;;
69783;SDS011;57054;51.978;4.498;2023-08-06T14:17:28;3.67;;;0.90;;
69783;SDS011;57054;51.978;4.498;2023-08-06T14:19:54;3.00;;;0.70;;
69783;SDS011;57054;51.978;4.498;2023-08-06T14:22:19;6.88;;;1.05;;
69783;SDS011;57054;51.978;4.498;2023-08-06T14:24:45;0.93;;;0.50;;
69783;SDS011;57054;51.978;4.498;2023-08-06T14:27:12;3.20;;;0.63;;
69783;SDS011;57054;51.978;4.498;2023-08-06T14:29:37;3.03;;;0.73;;
69783;SDS011;57054;51.978;4.498;2023-08-06T14:32:03;5.53;;;1.35;;
69783;SDS011;57054;51.978;4.498;2023-08-06T14:34:28;4.00;;;1.08;;
69783;SDS011;57054;51.978;4.498;2023-08-06T14:36:54;2.75;;;0.75;;
69783;SDS011;57054;51.978;4.498;2023-08-06T14:39:19;2.70;;;0.65;;
69783;SDS011;57054;51.978;4.498;2023-08-06T14:41:45;4.95;;;1.00;;
69783;SDS011;57054;51.978;4.498;2023-08-06T14:44:10;9.60;;;1.25;;
69783;SDS011;57054;51.978;4.498;2023-08-06T14:46:36;3.30;;;0.60;;
69783;SDS011;57054;51.978;4.498;2023-08-06T14:49:02;2.83;;;1.00;;
69783;SDS011;57054;51.978;4.498;2023-08-06T14:51:27;6.35;;;0.88;;
69783;SDS011;57054;51.978;4.498;2023-08-06T14:53:53;6.30;;;1.02;;
69783;SDS011;57054;51.978;4.498;2023-08-06T14:56:18;9.02;;;1.15;;
69783;SDS011;57054;51.978;4.498;2023-08-06T14:58:44;5.30;;;0.90;;
69783;SDS011;57054;51.978;4.498;2023-08-06T15:01:09;5.07;;;1.00;;
69783;SDS011;57054;51.978;4.498;2023-08-06T15:03:34;5.15;;;0.82;;
69783;SDS011;57054;51.978;4.498;2023-08-06T15:06:00;4.28;;;1.15;;
69783;SDS011;57054;51.978;4.498;2023-08-06T15:08:25;6.68;;;1.25;;
69783;SDS011;57054;51.978;4.498;2023-08-06T15:10:51;7.05;;;1.25;;
69783;SDS011;57054;51.978;4.498;2023-08-06T15:13:20;4.63;;;1.23;;
69783;SDS011;57054;51.978;4.498;2023-08-06T15:15:46;10.68;;;1.15;;
69783;SDS011;57054;51.978;4.498;2023-08-06T15:18:12;6.82;;;1.00;;